createdAt,value
2022-08-22T00:00:45.417Z,72.28
2022-08-22T00:02:46.232Z,64.33
2022-08-22T00:02:57.904Z,70.74
2022-08-22T00:03:07.177Z,60.84
2022-08-22T00:03:07.845Z,69.92
2022-08-22T00:03:10.013Z,69.94
2022-08-22T00:03:41.465Z,72.62
2022-08-22T00:06:37.600Z,72.75
2022-08-22T00:09:47.466Z,72.59
2022-08-22T00:12:29.473Z,72.54
2022-08-22T00:15:42.049Z,72.63
2022-08-22T00:18:15.550Z,72.57
2022-08-22T00:20:52.706Z,73.01
2022-08-22T00:24:00.152Z,72.66
2022-08-22T00:26:33.761Z,72.76
2022-08-22T00:29:09.019Z,72.78
2022-08-22T00:31:51.610Z,72.61
2022-08-22T00:34:32.484Z,72.74
2022-08-22T00:37:15.473Z,73.19
2022-08-22T00:39:49.492Z,72.81
2022-08-22T00:42:41.473Z,73.16
2022-08-22T00:45:34.492Z,73.11
2022-08-22T00:48:24.582Z,73.41
2022-08-22T00:51:22.425Z,73.77
2022-08-22T00:54:17.451Z,73.45
2022-08-22T00:57:13.438Z,73.51
2022-08-22T00:59:47.740Z,73.47
2022-08-22T01:02:37.555Z,73.79
2022-08-22T01:05:34.097Z,74.00
2022-08-22T01:08:21.922Z,73.64
2022-08-22T01:11:34.277Z,73.48
2022-08-22T01:14:34.692Z,73.78
2022-08-22T01:17:25.819Z,73.50
2022-08-22T01:20:28.111Z,73.73
2022-08-22T01:23:20.976Z,73.46
2022-08-22T01:26:14.409Z,73.57
2022-08-22T01:29:14.843Z,73.31
2022-08-22T01:32:22.874Z,74.00
2022-08-22T01:34:54.125Z,73.59
2022-08-22T01:37:31.539Z,73.83
2022-08-22T01:40:09.389Z,73.76
2022-08-22T01:43:01.772Z,74.33
2022-08-22T01:45:48.085Z,74.07
2022-08-22T01:48:38.765Z,74.57
2022-08-22T01:51:21.695Z,74.15
2022-08-22T01:54:07.568Z,74.53
2022-08-22T01:56:44.819Z,74.35
2022-08-22T01:59:33.844Z,74.45
2022-08-22T02:02:27.478Z,74.79
2022-08-22T02:05:22.048Z,74.83
2022-08-22T02:08:15.807Z,74.40
2022-08-22T02:11:05.904Z,74.45
2022-08-22T02:14:07.283Z,74.97
2022-08-22T02:16:42.359Z,74.88
2022-08-22T02:19:13.604Z,74.88
2022-08-22T02:21:55.784Z,75.24
2022-08-22T02:24:44.716Z,74.71
2022-08-22T02:27:47.309Z,74.81
2022-08-22T02:30:30.449Z,74.73
2022-08-22T02:33:10.747Z,74.34
2022-08-22T02:35:59.944Z,74.41
2022-08-22T02:38:38.706Z,74.40
2022-08-22T02:41:16.105Z,74.77
2022-08-22T02:44:15.614Z,74.66
2022-08-22T02:46:59.592Z,74.52
2022-08-22T02:50:03.623Z,74.84
2022-08-22T02:52:58.401Z,74.72
2022-08-22T02:55:52.684Z,74.63
2022-08-22T02:58:39.131Z,74.61
2022-08-22T03:01:17.173Z,74.47
2022-08-22T03:03:49.622Z,74.36
2022-08-22T03:06:35.122Z,74.28
2022-08-22T03:09:22.523Z,74.80
2022-08-22T03:12:13.930Z,75.12
2022-08-22T03:15:06.975Z,74.69
2022-08-22T03:17:51.001Z,74.99
2022-08-22T03:20:41.406Z,74.80
2022-08-22T03:23:36.024Z,75.09
2022-08-22T03:26:15.402Z,74.68
2022-08-22T03:28:59.261Z,74.93
2022-08-22T03:31:32.438Z,74.95
2022-08-22T03:34:25.059Z,75.15
2022-08-22T03:37:20.197Z,75.27
2022-08-22T03:39:56.142Z,75.30
2022-08-22T03:42:35.364Z,75.46
2022-08-22T03:45:21.630Z,75.35
2022-08-22T03:48:35.333Z,75.63
2022-08-22T03:51:32.100Z,75.55
2022-08-22T03:54:44.939Z,75.68
2022-08-22T03:57:59.004Z,76.15
2022-08-22T04:00:50.813Z,76.16
2022-08-22T04:04:01.200Z,76.41
2022-08-22T04:06:45.325Z,76.27
2022-08-22T04:09:43.960Z,76.39
2022-08-22T04:12:54.925Z,76.55
2022-08-22T04:15:48.777Z,76.58
2022-08-22T04:18:47.261Z,76.84
2022-08-22T04:21:25.743Z,76.71
2022-08-22T04:24:32.310Z,77.02
2022-08-22T04:27:18.545Z,77.12
2022-08-22T04:30:12.746Z,77.04
2022-08-22T04:32:51.326Z,76.87
2022-08-22T04:35:36.029Z,76.96
2022-08-22T04:38:16.977Z,77.42
2022-08-22T04:40:55.635Z,77.22
2022-08-22T04:44:13.475Z,77.60
2022-08-22T04:46:52.581Z,77.43
2022-08-22T04:49:39.796Z,77.56
2022-08-22T04:52:24.365Z,77.42
2022-08-22T04:55:33.429Z,77.39
2022-08-22T04:58:24.460Z,77.18
2022-08-22T05:01:16.639Z,77.55
2022-08-22T05:04:01.358Z,77.71
2022-08-22T05:06:37.934Z,77.58
2022-08-22T05:09:16.195Z,77.77
2022-08-22T05:11:53.054Z,77.49
2022-08-22T05:14:41.595Z,77.71
2022-08-22T05:17:18.677Z,77.74
2022-08-22T05:19:56.650Z,77.63
2022-08-22T05:22:32.309Z,77.88
2022-08-22T05:25:10.899Z,77.97
2022-08-22T05:27:48.193Z,77.77
2022-08-22T05:30:24.237Z,78.01
2022-08-22T05:32:55.466Z,77.91
2022-08-22T05:35:40.719Z,77.77
2022-08-22T05:38:16.094Z,77.84
2022-08-22T05:40:57.546Z,78.01
2022-08-22T05:43:29.296Z,78.07
2022-08-22T05:46:03.034Z,78.35
2022-08-22T05:48:42.569Z,78.23
2022-08-22T05:51:25.214Z,78.38
2022-08-22T05:54:12.077Z,78.73
2022-08-22T05:56:48.217Z,78.22
2022-08-22T05:59:33.357Z,78.54
2022-08-22T06:02:14.540Z,77.92
2022-08-22T06:04:54.618Z,76.99
2022-08-22T06:07:39.953Z,75.88
2022-08-22T06:10:24.620Z,74.11
2022-08-22T06:13:03.646Z,73.33
2022-08-22T06:15:59.989Z,71.86
2022-08-22T06:18:32.572Z,71.70
2022-08-22T06:21:10.069Z,70.85
2022-08-22T06:23:54.230Z,71.00
2022-08-22T06:26:30.989Z,70.36
2022-08-22T06:29:02.935Z,70.45
2022-08-22T06:31:43.156Z,70.38
2022-08-22T06:34:27.962Z,70.19
2022-08-22T06:37:05.453Z,70.50
2022-08-22T06:39:41.832Z,69.93
2022-08-22T06:42:22.654Z,69.55
2022-08-22T06:45:02.897Z,69.62
2022-08-22T06:47:53.551Z,69.18
2022-08-22T06:50:31.066Z,69.14
2022-08-22T06:53:15.964Z,69.41
2022-08-22T06:55:51.236Z,69.15
2022-08-22T06:58:33.845Z,69.19
2022-08-22T07:01:13.745Z,68.84
2022-08-22T07:03:50.477Z,68.30
2022-08-22T07:06:39.007Z,67.59
2022-08-22T07:09:27.499Z,67.06
2022-08-22T07:12:03.246Z,66.97
2022-08-22T07:14:43.010Z,66.19
2022-08-22T07:17:23.435Z,65.95
2022-08-22T07:20:16.301Z,65.08
2022-08-22T07:22:58.766Z,65.08
2022-08-22T07:25:31.690Z,64.87
2022-08-22T07:28:06.049Z,64.28
2022-08-22T07:31:03.468Z,64.09
2022-08-22T07:33:44.451Z,63.94
2022-08-22T07:36:28.383Z,63.33
2022-08-22T07:39:20.056Z,63.12
2022-08-22T07:42:10.679Z,61.58
2022-08-22T07:44:54.036Z,60.93
2022-08-22T07:47:34.167Z,60.98
2022-08-22T07:50:10.477Z,60.65
2022-08-22T07:52:44.629Z,60.57
2022-08-22T07:55:23.061Z,59.13
2022-08-22T07:58:04.075Z,58.58
2022-08-22T08:00:43.196Z,58.12
2022-08-22T08:03:15.141Z,57.03
2022-08-22T08:05:46.742Z,56.97
2022-08-22T08:08:32.270Z,57.58
2022-08-22T08:11:05.060Z,57.00
2022-08-22T08:13:43.345Z,56.81
2022-08-22T08:16:24.740Z,56.82
2022-08-22T08:18:59.245Z,56.47
2022-08-22T08:21:37.151Z,56.90
2022-08-22T08:24:14.233Z,56.38
2022-08-22T08:27:11.956Z,56.16
2022-08-22T08:29:56.417Z,55.56
2022-08-22T08:32:31.199Z,54.99
2022-08-22T08:35:08.122Z,55.34
2022-08-22T08:37:48.424Z,54.77
2022-08-22T08:40:30.863Z,54.82
2022-08-22T08:43:40.432Z,54.44
2022-08-22T08:46:17.731Z,53.79
2022-08-22T08:49:11.732Z,53.71
2022-08-22T08:51:49.043Z,53.20
2022-08-22T08:54:54.915Z,52.84
2022-08-22T08:57:49.838Z,52.94
2022-08-22T09:00:54.697Z,51.75
2022-08-22T09:03:44.012Z,52.40
2022-08-22T09:06:38.583Z,51.84
2022-08-22T09:09:29.172Z,50.55
2022-08-22T09:12:07.201Z,50.21
2022-08-22T09:15:27.562Z,50.44
2022-08-22T09:18:13.929Z,50.60
2022-08-22T09:21:09.929Z,49.88
2022-08-22T09:24:21.102Z,49.33
2022-08-22T09:27:01.986Z,49.71
2022-08-22T09:29:51.659Z,49.08
2022-08-22T09:32:54.786Z,48.35
2022-08-22T09:35:42.138Z,48.29
2022-08-22T09:38:28.970Z,47.61
2022-08-22T09:41:17.006Z,46.99
2022-08-22T09:44:09.004Z,46.84
2022-08-22T09:47:02.856Z,46.03
2022-08-22T09:49:59.413Z,45.74
2022-08-22T09:52:50.609Z,45.59
2022-08-22T09:55:40.069Z,46.01
2022-08-22T09:58:31.032Z,44.43
2022-08-22T10:01:13.425Z,44.19
2022-08-22T10:04:02.961Z,44.37
2022-08-22T10:06:50.798Z,43.67
2022-08-22T10:09:31.359Z,43.15
2022-08-22T10:12:12.927Z,42.12
2022-08-22T10:15:09.133Z,42.38
2022-08-22T10:17:57.589Z,42.12
2022-08-22T10:20:36.441Z,41.83
2022-08-22T10:23:23.102Z,41.76
2022-08-22T10:26:22.975Z,41.86
2022-08-22T10:29:16.343Z,41.87
2022-08-22T10:31:58.936Z,41.60
2022-08-22T10:34:38.128Z,42.31
2022-08-22T10:37:25.241Z,41.42
2022-08-22T10:40:13.024Z,41.16
2022-08-22T10:42:53.867Z,41.14
2022-08-22T10:45:35.573Z,40.67
2022-08-22T10:48:09.818Z,40.48
2022-08-22T10:50:50.453Z,39.25
2022-08-22T10:53:37.125Z,39.31
2022-08-22T10:56:27.329Z,39.36
2022-08-22T10:59:17.008Z,38.65
2022-08-22T11:02:18.623Z,38.35
2022-08-22T11:05:24.263Z,38.59
2022-08-22T11:08:53.307Z,38.41
2022-08-22T11:11:54.061Z,38.67
2022-08-22T11:14:30.989Z,38.54
2022-08-22T11:17:28.921Z,39.47
2022-08-22T11:20:12.156Z,38.83
2022-08-22T11:23:22.792Z,38.48
2022-08-22T11:26:33.505Z,38.46
2022-08-22T11:29:26.221Z,37.62
2022-08-22T11:32:33.562Z,37.30
2022-08-22T11:35:17.021Z,37.48
2022-08-22T11:38:28.056Z,36.96
2022-08-22T11:41:12.555Z,36.79
2022-08-22T11:44:01.226Z,36.84
2022-08-22T11:46:45.233Z,36.28
2022-08-22T11:49:36.819Z,35.94
2022-08-22T11:52:13.271Z,36.18
2022-08-22T11:55:07.889Z,36.18
2022-08-22T11:57:52.792Z,36.12
2022-08-22T12:00:31.933Z,36.21
2022-08-22T12:03:35.447Z,36.79
2022-08-22T12:06:40.474Z,36.60
2022-08-22T12:09:43.107Z,36.94
2022-08-22T12:12:26.498Z,36.24
2022-08-22T12:15:24.405Z,36.80
2022-08-22T12:18:22.734Z,36.83
2022-08-22T12:21:19.186Z,36.53
2022-08-22T12:24:21.034Z,36.23
2022-08-22T12:27:18.373Z,36.25
2022-08-22T12:30:13.923Z,36.66
2022-08-22T12:32:53.451Z,35.81
2022-08-22T12:35:39.950Z,35.71
2022-08-22T12:38:28.798Z,35.93
2022-08-22T12:41:46.711Z,36.24
2022-08-22T12:44:49.619Z,35.34
2022-08-22T12:47:32.132Z,34.95
2022-08-22T12:50:18.516Z,34.18
2022-08-22T12:53:18.225Z,34.49
2022-08-22T12:55:55.561Z,35.16
2022-08-22T12:58:57.592Z,34.60
2022-08-22T13:01:36.508Z,34.65
2022-08-22T13:04:19.330Z,34.42
2022-08-22T13:07:23.199Z,34.07
2022-08-22T13:10:00.712Z,33.46
2022-08-22T13:12:47.142Z,33.73
2022-08-22T13:15:29.178Z,33.12
2022-08-22T13:18:28.382Z,33.22
2022-08-22T13:20:58.183Z,33.48
2022-08-22T13:23:39.773Z,33.00
2022-08-22T13:26:34.059Z,33.20
2022-08-22T13:29:26.762Z,33.41
2022-08-22T13:32:01.512Z,33.58
2022-08-22T13:34:44.699Z,33.78
2022-08-22T13:37:24.477Z,34.10
2022-08-22T13:40:02.045Z,33.72
2022-08-22T13:42:39.970Z,34.14
2022-08-22T13:45:16.725Z,34.68
2022-08-22T13:47:54.280Z,34.69
2022-08-22T13:50:37.579Z,34.43
2022-08-22T13:53:49.795Z,34.86
2022-08-22T13:57:11.099Z,35.10
2022-08-22T13:59:59.469Z,34.16
2022-08-22T14:02:59.856Z,34.32
2022-08-22T14:05:40.021Z,33.96
2022-08-22T14:08:31.655Z,33.15
2022-08-22T14:11:12.469Z,33.87
2022-08-22T14:13:49.222Z,32.95
2022-08-22T14:16:23.376Z,33.96
2022-08-22T14:18:58.345Z,33.55
2022-08-22T14:21:41.856Z,34.33
2022-08-22T14:24:30.638Z,34.52
2022-08-22T14:27:13.190Z,34.37
2022-08-22T14:29:54.994Z,34.18
2022-08-22T14:32:30.883Z,34.99
2022-08-22T14:35:37.498Z,34.47
2022-08-22T14:38:30.245Z,34.75
2022-08-22T14:41:23.497Z,34.62
2022-08-22T14:43:58.127Z,35.24
2022-08-22T14:46:42.824Z,35.82
2022-08-22T14:49:25.309Z,35.57
2022-08-22T14:52:22.868Z,35.58
2022-08-22T14:55:15.944Z,34.99
2022-08-22T14:57:56.996Z,35.54
2022-08-22T15:00:39.690Z,34.54
2022-08-22T15:03:34.352Z,33.81
2022-08-22T15:06:47.577Z,34.51
2022-08-22T15:09:57.277Z,34.21
2022-08-22T15:12:45.049Z,34.87
2022-08-22T15:15:49.325Z,34.59
2022-08-22T15:18:27.676Z,34.54
2022-08-22T15:21:12.596Z,35.25
2022-08-22T15:23:45.158Z,35.54
2022-08-22T15:26:31.666Z,35.21
2022-08-22T15:29:08.414Z,35.67
2022-08-22T15:31:42.021Z,35.70
2022-08-22T15:34:29.977Z,35.57
2022-08-22T15:37:16.168Z,35.65
2022-08-22T15:40:05.781Z,35.69
2022-08-22T15:42:43.981Z,36.36
2022-08-22T15:45:21.740Z,36.24
2022-08-22T15:47:54.032Z,36.60
2022-08-22T15:50:56.933Z,36.19
2022-08-22T15:53:33.677Z,36.59
2022-08-22T15:56:23.345Z,36.91
2022-08-22T15:59:25.226Z,36.96
2022-08-22T16:02:22.155Z,37.17
2022-08-22T16:05:13.503Z,37.15
2022-08-22T16:07:44.767Z,37.36
2022-08-22T16:10:21.911Z,37.02
2022-08-22T16:13:15.525Z,37.55
2022-08-22T16:15:46.854Z,37.69
2022-08-22T16:18:37.066Z,38.10
2022-08-22T16:21:23.408Z,38.50
2022-08-22T16:23:56.385Z,38.77
2022-08-22T16:26:30.767Z,39.60
2022-08-22T16:29:02.118Z,39.67
2022-08-22T16:31:48.464Z,39.75
2022-08-22T16:34:38.004Z,40.09
2022-08-22T16:37:12.061Z,40.94
2022-08-22T16:39:58.859Z,41.02
2022-08-22T16:42:43.191Z,41.67
2022-08-22T16:45:20.547Z,41.26
2022-08-22T16:47:58.305Z,41.80
2022-08-22T16:50:38.209Z,42.11
2022-08-22T16:53:21.484Z,42.35
2022-08-22T16:56:48.230Z,42.62
2022-08-22T16:59:38.586Z,42.76
2022-08-22T17:02:29.704Z,43.09
2022-08-22T17:05:24.607Z,42.97
2022-08-22T17:08:37.008Z,43.04
2022-08-22T17:11:31.901Z,43.71
2022-08-22T17:14:09.295Z,43.66
2022-08-22T17:17:13.880Z,44.66
2022-08-22T17:19:57.530Z,44.01
2022-08-22T17:22:59.924Z,44.73
2022-08-22T17:25:58.486Z,45.10
2022-08-22T17:28:47.898Z,44.76
2022-08-22T17:31:36.861Z,45.98
2022-08-22T17:34:25.314Z,46.28
2022-08-22T17:37:16.711Z,46.02
2022-08-22T17:40:03.546Z,46.68
2022-08-22T17:42:43.933Z,47.25
2022-08-22T17:45:42.164Z,47.23
2022-08-22T17:48:22.475Z,47.86
2022-08-22T17:51:00.124Z,48.12
2022-08-22T17:53:51.027Z,48.30
2022-08-22T17:56:28.528Z,48.82
2022-08-22T17:58:59.843Z,48.54
2022-08-22T18:01:52.992Z,49.55
2022-08-22T18:04:38.857Z,49.21
2022-08-22T18:07:10.109Z,49.22
2022-08-22T18:09:50.226Z,49.98
2022-08-22T18:12:34.499Z,49.85
2022-08-22T18:15:23.010Z,50.21
2022-08-22T18:18:04.777Z,50.08
2022-08-22T18:21:00.372Z,50.76
2022-08-22T18:23:40.080Z,50.60
2022-08-22T18:26:28.406Z,50.75
2022-08-22T18:29:18.549Z,51.07
2022-08-22T18:32:00.181Z,51.18
2022-08-22T18:34:43.631Z,51.45
2022-08-22T18:37:18.093Z,51.75
2022-08-22T18:39:58.723Z,52.02
2022-08-22T18:42:39.326Z,52.09
2022-08-22T18:45:18.999Z,52.48
2022-08-22T18:47:56.351Z,52.40
2022-08-22T18:50:33.676Z,52.29
2022-08-22T18:53:37.600Z,52.79
2022-08-22T18:56:18.488Z,53.03
2022-08-22T18:59:05.979Z,53.10
2022-08-22T19:01:51.804Z,53.75
2022-08-22T19:04:54.230Z,53.80
2022-08-22T19:07:54.116Z,53.75
2022-08-22T19:10:53.854Z,54.22
2022-08-22T19:13:45.648Z,54.31
2022-08-22T19:16:37.580Z,54.30
2022-08-22T19:19:21.484Z,54.28
2022-08-22T19:22:20.806Z,54.43
2022-08-22T19:25:13.267Z,54.60
2022-08-22T19:28:05.940Z,54.33
2022-08-22T19:30:46.881Z,54.66
2022-08-22T19:33:38.424Z,54.57
2022-08-22T19:36:12.794Z,54.64
2022-08-22T19:38:56.902Z,54.75
2022-08-22T19:41:52.328Z,54.97
2022-08-22T19:44:23.572Z,54.69
2022-08-22T19:47:26.866Z,55.16
2022-08-22T19:50:24.007Z,54.94
2022-08-22T19:53:35.884Z,54.96
2022-08-22T19:57:06.818Z,54.71
2022-08-22T20:00:07.696Z,54.25
2022-08-22T20:03:01.839Z,54.42
2022-08-22T20:05:42.033Z,54.10
2022-08-22T20:08:54.073Z,54.17
2022-08-22T20:11:28.155Z,54.23
2022-08-22T20:14:30.996Z,54.13
2022-08-22T20:17:05.749Z,53.81
2022-08-22T20:19:37.035Z,53.77
2022-08-22T20:22:17.311Z,54.10
2022-08-22T20:24:55.126Z,53.91
2022-08-22T20:27:26.409Z,53.86
2022-08-22T20:30:10.801Z,53.35
2022-08-22T20:32:50.360Z,53.33
2022-08-22T20:35:34.092Z,53.21
2022-08-22T20:38:09.701Z,52.70
2022-08-22T20:41:03.320Z,52.66
2022-08-22T20:43:45.409Z,52.70
2022-08-22T20:46:29.100Z,52.11
2022-08-22T20:49:01.167Z,52.19
2022-08-22T20:51:33.584Z,51.80
2022-08-22T20:54:18.134Z,51.48
2022-08-22T20:56:56.932Z,51.39
2022-08-22T20:59:30.556Z,51.24
2022-08-22T21:02:22.107Z,50.94
2022-08-22T21:05:04.208Z,50.77
2022-08-22T21:07:40.371Z,50.88
2022-08-22T21:10:36.654Z,50.84
2022-08-22T21:13:26.175Z,50.49
2022-08-22T21:16:19.029Z,50.33
2022-08-22T21:18:52.274Z,50.42
2022-08-22T21:21:28.273Z,50.51
2022-08-22T21:24:06.857Z,50.39
2022-08-22T21:27:00.841Z,50.13
2022-08-22T21:29:41.994Z,50.32
2022-08-22T21:32:13.252Z,50.15
2022-08-22T21:34:48.554Z,49.88
2022-08-22T21:37:39.765Z,49.97
2022-08-22T21:40:21.362Z,49.95
2022-08-22T21:43:10.824Z,49.92
2022-08-22T21:45:43.653Z,49.83
2022-08-22T21:48:56.264Z,49.79
2022-08-22T21:51:43.710Z,49.61
2022-08-22T21:54:30.220Z,49.46
2022-08-22T21:57:10.369Z,49.45
2022-08-22T21:59:51.401Z,49.44
2022-08-22T22:02:39.643Z,49.29
2022-08-22T22:05:14.310Z,49.28
2022-08-22T22:07:47.437Z,48.99
2022-08-22T22:10:20.553Z,49.20
2022-08-22T22:12:56.270Z,49.13
2022-08-22T22:15:31.869Z,49.02
2022-08-22T22:18:04.598Z,48.94
2022-08-22T22:20:36.523Z,49.16
2022-08-22T22:23:08.522Z,48.80
2022-08-22T22:25:42.402Z,49.10
2022-08-22T22:28:21.588Z,49.18
2022-08-22T22:30:53.340Z,48.94
2022-08-22T22:33:28.816Z,48.88
2022-08-22T22:36:06.686Z,48.79
2022-08-22T22:38:39.920Z,48.79
2022-08-22T22:41:11.693Z,49.02
2022-08-22T22:43:42.991Z,48.86
2022-08-22T22:46:14.325Z,49.03
2022-08-22T22:48:45.837Z,48.97
2022-08-22T22:51:17.188Z,48.63
2022-08-22T22:53:48.792Z,48.52
2022-08-22T22:56:23.098Z,48.98
2022-08-22T22:59:00.812Z,48.72
2022-08-22T23:02:05.327Z,48.37
2022-08-22T23:04:41.428Z,48.36
2022-08-22T23:07:14.935Z,48.63
2022-08-22T23:09:46.580Z,48.57
2022-08-22T23:12:18.269Z,48.28
2022-08-22T23:14:53.671Z,48.37
2022-08-22T23:17:25.009Z,48.60
2022-08-22T23:19:56.329Z,48.73
2022-08-22T23:22:27.736Z,48.33
2022-08-22T23:24:59.073Z,48.54
2022-08-22T23:27:31.328Z,48.64
2022-08-22T23:30:04.813Z,48.69
2022-08-22T23:32:37.008Z,48.80
2022-08-22T23:35:08.835Z,48.61
2022-08-22T23:37:40.159Z,48.70
2022-08-22T23:40:11.689Z,48.68
2022-08-22T23:42:43.095Z,48.53
2022-08-22T23:45:14.498Z,48.66
2022-08-22T23:47:45.914Z,48.96
2022-08-22T23:50:17.271Z,49.24
2022-08-22T23:52:48.571Z,48.95
2022-08-22T23:55:19.930Z,49.09
2022-08-22T23:57:51.247Z,48.74
